sensor_id;sensor_type;location;lat;lon;timestamp;temperature;humidity
11005;DHT22;5555;59.622;16.556;2023-07-29T00:01:09;12.40;99.90
11005;DHT22;5555;59.622;16.556;2023-07-29T00:03:35;12.40;99.90
11005;DHT22;5555;59.622;16.556;2023-07-29T00:06:00;12.30;99.90
11005;DHT22;5555;59.622;16.556;2023-07-29T00:08:26;12.30;99.90
11005;DHT22;5555;59.622;16.556;2023-07-29T00:10:51;12.30;99.90
11005;DHT22;5555;59.622;16.556;2023-07-29T00:13:17;12.30;99.90
11005;DHT22;5555;59.622;16.556;2023-07-29T00:15:43;12.20;99.90
11005;DHT22;5555;59.622;16.556;2023-07-29T00:18:08;12.20;99.90
11005;DHT22;5555;59.622;16.556;2023-07-29T00:20:34;12.30;99.90
11005;DHT22;5555;59.622;16.556;2023-07-29T00:23:00;12.30;99.90
11005;DHT22;5555;59.622;16.556;2023-07-29T00:25:26;12.20;99.90
11005;DHT22;5555;59.622;16.556;2023-07-29T00:27:54;12.20;99.90
11005;DHT22;5555;59.622;16.556;2023-07-29T00:30:20;12.20;99.90
11005;DHT22;5555;59.622;16.556;2023-07-29T00:32:45;12.10;99.90
11005;DHT22;5555;59.622;16.556;2023-07-29T00:35:11;12.10;99.90
11005;DHT22;5555;59.622;16.556;2023-07-29T00:37:36;12.10;99.90
11005;DHT22;5555;59.622;16.556;2023-07-29T00:40:05;12.00;99.90
11005;DHT22;5555;59.622;16.556;2023-07-29T00:42:35;12.00;99.90
11005;DHT22;5555;59.622;16.556;2023-07-29T00:45:00;12.10;99.90
11005;DHT22;5555;59.622;16.556;2023-07-29T00:47:26;12.00;99.90
11005;DHT22;5555;59.622;16.556;2023-07-29T00:49:51;11.90;99.90
11005;DHT22;5555;59.622;16.556;2023-07-29T00:52:17;11.90;99.90
11005;DHT22;5555;59.622;16.556;2023-07-29T00:54:43;11.90;99.90
11005;DHT22;5555;59.622;16.556;2023-07-29T00:57:10;11.80;99.90
11005;DHT22;5555;59.622;16.556;2023-07-29T00:59:37;11.80;99.90
11005;DHT22;5555;59.622;16.556;2023-07-29T01:02:03;11.80;99.90
11005;DHT22;5555;59.622;16.556;2023-07-29T01:04:30;11.70;99.90
11005;DHT22;5555;59.622;16.556;2023-07-29T01:07:22;11.70;99.90
11005;DHT22;5555;59.622;16.556;2023-07-29T01:12:56;11.70;99.90
11005;DHT22;5555;59.622;16.556;2023-07-29T01:15:36;11.70;99.90
11005;DHT22;5555;59.622;16.556;2023-07-29T01:18:08;11.70;99.90
11005;DHT22;5555;59.622;16.556;2023-07-29T01:20:41;11.70;99.90
11005;DHT22;5555;59.622;16.556;2023-07-29T01:23:09;11.70;99.90
11005;DHT22;5555;59.622;16.556;2023-07-29T01:25:34;11.70;99.90
11005;DHT22;5555;59.622;16.556;2023-07-29T01:28:00;11.70;99.90
11005;DHT22;5555;59.622;16.556;2023-07-29T01:30:30;11.60;99.90
11005;DHT22;5555;59.622;16.556;2023-07-29T01:35:54;11.60;99.90
11005;DHT22;5555;59.622;16.556;2023-07-29T01:38:29;11.60;99.90
11005;DHT22;5555;59.622;16.556;2023-07-29T01:40:59;11.50;99.90
11005;DHT22;5555;59.622;16.556;2023-07-29T01:43:27;11.50;99.90
11005;DHT22;5555;59.622;16.556;2023-07-29T01:45:53;11.50;99.90
11005;DHT22;5555;59.622;16.556;2023-07-29T01:48:19;11.40;99.90
11005;DHT22;5555;59.622;16.556;2023-07-29T01:50:45;11.40;99.90
11005;DHT22;5555;59.622;16.556;2023-07-29T01:53:10;11.40;99.90
11005;DHT22;5555;59.622;16.556;2023-07-29T01:55:36;11.40;99.90
11005;DHT22;5555;59.622;16.556;2023-07-29T01:58:01;11.40;99.90
11005;DHT22;5555;59.622;16.556;2023-07-29T02:00:27;11.40;99.90
11005;DHT22;5555;59.622;16.556;2023-07-29T02:02:53;11.40;99.90
11005;DHT22;5555;59.622;16.556;2023-07-29T02:05:18;11.40;99.90
11005;DHT22;5555;59.622;16.556;2023-07-29T02:07:44;11.40;99.90
11005;DHT22;5555;59.622;16.556;2023-07-29T02:10:09;11.40;99.90
11005;DHT22;5555;59.622;16.556;2023-07-29T02:12:35;11.40;99.90
11005;DHT22;5555;59.622;16.556;2023-07-29T02:15:00;11.40;99.90
11005;DHT22;5555;59.622;16.556;2023-07-29T02:17:26;11.30;99.90
11005;DHT22;5555;59.622;16.556;2023-07-29T02:19:52;11.30;99.90
11005;DHT22;5555;59.622;16.556;2023-07-29T02:22:18;11.30;99.90
11005;DHT22;5555;59.622;16.556;2023-07-29T02:24:44;11.20;99.90
11005;DHT22;5555;59.622;16.556;2023-07-29T02:27:10;11.30;99.90
11005;DHT22;5555;59.622;16.556;2023-07-29T02:29:36;11.30;99.90
11005;DHT22;5555;59.622;16.556;2023-07-29T02:32:02;11.20;99.90
11005;DHT22;5555;59.622;16.556;2023-07-29T02:34:28;11.10;99.90
11005;DHT22;5555;59.622;16.556;2023-07-29T02:36:54;11.10;99.90
11005;DHT22;5555;59.622;16.556;2023-07-29T02:39:19;11.10;99.90
11005;DHT22;5555;59.622;16.556;2023-07-29T02:41:45;11.10;99.90
11005;DHT22;5555;59.622;16.556;2023-07-29T02:44:11;11.10;99.90
11005;DHT22;5555;59.622;16.556;2023-07-29T02:46:36;11.10;99.90
11005;DHT22;5555;59.622;16.556;2023-07-29T02:49:03;11.10;99.90
11005;DHT22;5555;59.622;16.556;2023-07-29T02:51:29;11.10;99.90
11005;DHT22;5555;59.622;16.556;2023-07-29T02:53:55;11.00;99.90
11005;DHT22;5555;59.622;16.556;2023-07-29T02:56:21;11.10;99.90
11005;DHT22;5555;59.622;16.556;2023-07-29T02:58:46;11.10;99.90
11005;DHT22;5555;59.622;16.556;2023-07-29T03:01:12;11.00;99.90
11005;DHT22;5555;59.622;16.556;2023-07-29T03:03:38;11.00;99.90
11005;DHT22;5555;59.622;16.556;2023-07-29T03:06:08;11.00;99.90
11005;DHT22;5555;59.622;16.556;2023-07-29T03:08:35;11.00;99.90
11005;DHT22;5555;59.622;16.556;2023-07-29T03:11:12;11.00;99.90
11005;DHT22;5555;59.622;16.556;2023-07-29T03:13:38;11.10;99.90
11005;DHT22;5555;59.622;16.556;2023-07-29T03:16:10;11.10;99.90
11005;DHT22;5555;59.622;16.556;2023-07-29T03:18:36;11.10;99.90
11005;DHT22;5555;59.622;16.556;2023-07-29T03:21:03;11.10;99.90
11005;DHT22;5555;59.622;16.556;2023-07-29T03:23:29;11.10;99.90
11005;DHT22;5555;59.622;16.556;2023-07-29T03:25:56;11.20;99.90
11005;DHT22;5555;59.622;16.556;2023-07-29T03:28:28;11.20;99.90
11005;DHT22;5555;59.622;16.556;2023-07-29T03:30:57;11.20;99.90
11005;DHT22;5555;59.622;16.556;2023-07-29T03:33:25;11.30;99.90
11005;DHT22;5555;59.622;16.556;2023-07-29T03:35:50;11.30;99.90
11005;DHT22;5555;59.622;16.556;2023-07-29T03:38:16;11.30;99.90
11005;DHT22;5555;59.622;16.556;2023-07-29T03:40:42;11.40;99.90
11005;DHT22;5555;59.622;16.556;2023-07-29T03:43:08;11.40;99.90
11005;DHT22;5555;59.622;16.556;2023-07-29T03:45:35;11.50;99.90
11005;DHT22;5555;59.622;16.556;2023-07-29T03:48:01;11.50;99.90
11005;DHT22;5555;59.622;16.556;2023-07-29T03:50:27;11.50;99.90
11005;DHT22;5555;59.622;16.556;2023-07-29T03:52:53;11.60;99.90
11005;DHT22;5555;59.622;16.556;2023-07-29T03:55:19;11.60;99.90
11005;DHT22;5555;59.622;16.556;2023-07-29T03:57:44;11.70;99.90
11005;DHT22;5555;59.622;16.556;2023-07-29T04:00:10;11.70;99.90
11005;DHT22;5555;59.622;16.556;2023-07-29T04:02:36;11.80;99.90
11005;DHT22;5555;59.622;16.556;2023-07-29T04:05:05;11.80;99.90
11005;DHT22;5555;59.622;16.556;2023-07-29T04:07:34;11.80;99.90
11005;DHT22;5555;59.622;16.556;2023-07-29T04:09:59;11.90;99.90
11005;DHT22;5555;59.622;16.556;2023-07-29T04:12:26;11.90;99.90
11005;DHT22;5555;59.622;16.556;2023-07-29T04:14:51;12.00;99.90
11005;DHT22;5555;59.622;16.556;2023-07-29T04:17:17;12.00;99.90
11005;DHT22;5555;59.622;16.556;2023-07-29T04:19:43;12.10;99.90
11005;DHT22;5555;59.622;16.556;2023-07-29T04:22:08;12.20;99.90
11005;DHT22;5555;59.622;16.556;2023-07-29T04:24:34;12.20;99.90
11005;DHT22;5555;59.622;16.556;2023-07-29T04:26:59;12.20;99.90
11005;DHT22;5555;59.622;16.556;2023-07-29T04:29:25;12.30;99.90
11005;DHT22;5555;59.622;16.556;2023-07-29T04:31:51;12.40;99.90
11005;DHT22;5555;59.622;16.556;2023-07-29T04:34:18;12.50;99.90
11005;DHT22;5555;59.622;16.556;2023-07-29T04:36:47;12.60;99.90
11005;DHT22;5555;59.622;16.556;2023-07-29T04:39:13;12.60;99.90
11005;DHT22;5555;59.622;16.556;2023-07-29T04:41:38;12.60;99.90
11005;DHT22;5555;59.622;16.556;2023-07-29T04:44:04;12.70;99.90
11005;DHT22;5555;59.622;16.556;2023-07-29T04:46:29;12.70;99.90
11005;DHT22;5555;59.622;16.556;2023-07-29T04:48:55;12.80;99.90
11005;DHT22;5555;59.622;16.556;2023-07-29T04:51:21;12.90;99.90
11005;DHT22;5555;59.622;16.556;2023-07-29T04:53:47;13.00;99.90
11005;DHT22;5555;59.622;16.556;2023-07-29T04:56:12;13.10;99.90
11005;DHT22;5555;59.622;16.556;2023-07-29T04:58:38;13.20;99.90
11005;DHT22;5555;59.622;16.556;2023-07-29T05:01:04;13.20;99.90
11005;DHT22;5555;59.622;16.556;2023-07-29T05:03:30;13.30;99.90
11005;DHT22;5555;59.622;16.556;2023-07-29T05:05:57;13.40;99.90
11005;DHT22;5555;59.622;16.556;2023-07-29T05:08:23;13.50;99.90
11005;DHT22;5555;59.622;16.556;2023-07-29T05:10:50;13.50;99.90
11005;DHT22;5555;59.622;16.556;2023-07-29T05:13:16;13.60;99.90
11005;DHT22;5555;59.622;16.556;2023-07-29T05:15:42;13.80;99.90
11005;DHT22;5555;59.622;16.556;2023-07-29T05:18:07;13.90;99.90
11005;DHT22;5555;59.622;16.556;2023-07-29T05:20:33;14.00;99.90
11005;DHT22;5555;59.622;16.556;2023-07-29T05:22:59;14.00;99.90
11005;DHT22;5555;59.622;16.556;2023-07-29T05:25:25;14.10;99.90
11005;DHT22;5555;59.622;16.556;2023-07-29T05:27:51;14.20;99.90
11005;DHT22;5555;59.622;16.556;2023-07-29T05:30:17;14.30;99.90
11005;DHT22;5555;59.622;16.556;2023-07-29T05:32:42;14.40;99.90
11005;DHT22;5555;59.622;16.556;2023-07-29T05:35:08;14.50;99.90
11005;DHT22;5555;59.622;16.556;2023-07-29T05:37:34;14.50;99.90
11005;DHT22;5555;59.622;16.556;2023-07-29T05:39:59;14.70;99.90
11005;DHT22;5555;59.622;16.556;2023-07-29T05:42:25;14.70;99.90
11005;DHT22;5555;59.622;16.556;2023-07-29T05:44:51;14.80;99.90
11005;DHT22;5555;59.622;16.556;2023-07-29T05:47:16;14.90;99.90
11005;DHT22;5555;59.622;16.556;2023-07-29T05:49:42;14.90;99.90
11005;DHT22;5555;59.622;16.556;2023-07-29T05:52:07;15.10;99.90
11005;DHT22;5555;59.622;16.556;2023-07-29T05:54:33;15.20;99.90
11005;DHT22;5555;59.622;16.556;2023-07-29T05:56:58;15.30;99.90
11005;DHT22;5555;59.622;16.556;2023-07-29T05:59:24;15.20;99.90
11005;DHT22;5555;59.622;16.556;2023-07-29T06:01:50;15.30;99.90
11005;DHT22;5555;59.622;16.556;2023-07-29T06:04:15;15.30;99.90
11005;DHT22;5555;59.622;16.556;2023-07-29T06:06:41;15.50;99.90
11005;DHT22;5555;59.622;16.556;2023-07-29T06:09:07;15.70;99.90
11005;DHT22;5555;59.622;16.556;2023-07-29T06:11:32;15.80;99.90
11005;DHT22;5555;59.622;16.556;2023-07-29T06:13:58;15.90;99.90
11005;DHT22;5555;59.622;16.556;2023-07-29T06:16:23;16.00;99.90
11005;DHT22;5555;59.622;16.556;2023-07-29T06:18:49;16.10;99.90
11005;DHT22;5555;59.622;16.556;2023-07-29T06:21:15;16.20;99.90
11005;DHT22;5555;59.622;16.556;2023-07-29T06:23:46;16.30;99.90
11005;DHT22;5555;59.622;16.556;2023-07-29T06:26:12;16.40;99.90
11005;DHT22;5555;59.622;16.556;2023-07-29T06:28:37;16.60;99.90
11005;DHT22;5555;59.622;16.556;2023-07-29T06:31:03;16.70;99.90
11005;DHT22;5555;59.622;16.556;2023-07-29T06:33:29;16.70;99.90
11005;DHT22;5555;59.622;16.556;2023-07-29T06:35:54;16.80;99.90
11005;DHT22;5555;59.622;16.556;2023-07-29T06:38:20;16.80;99.90
11005;DHT22;5555;59.622;16.556;2023-07-29T06:40:48;16.90;99.90
11005;DHT22;5555;59.622;16.556;2023-07-29T06:43:13;17.00;99.90
11005;DHT22;5555;59.622;16.556;2023-07-29T06:45:39;17.10;99.90
11005;DHT22;5555;59.622;16.556;2023-07-29T06:48:05;17.30;99.90
11005;DHT22;5555;59.622;16.556;2023-07-29T06:50:30;17.40;99.90
11005;DHT22;5555;59.622;16.556;2023-07-29T06:52:56;17.30;99.90
11005;DHT22;5555;59.622;16.556;2023-07-29T06:55:22;17.50;99.90
11005;DHT22;5555;59.622;16.556;2023-07-29T06:57:47;17.60;99.90
11005;DHT22;5555;59.622;16.556;2023-07-29T07:00:13;17.60;99.90
11005;DHT22;5555;59.622;16.556;2023-07-29T07:02:39;17.70;99.90
11005;DHT22;5555;59.622;16.556;2023-07-29T07:05:04;17.80;99.90
11005;DHT22;5555;59.622;16.556;2023-07-29T07:07:30;17.80;99.90
11005;DHT22;5555;59.622;16.556;2023-07-29T07:09:56;18.00;99.90
11005;DHT22;5555;59.622;16.556;2023-07-29T07:12:22;18.10;99.90
11005;DHT22;5555;59.622;16.556;2023-07-29T07:14:47;18.40;99.90
11005;DHT22;5555;59.622;16.556;2023-07-29T07:17:13;18.40;99.90
11005;DHT22;5555;59.622;16.556;2023-07-29T07:19:39;18.40;99.90
11005;DHT22;5555;59.622;16.556;2023-07-29T07:22:05;18.40;99.90
11005;DHT22;5555;59.622;16.556;2023-07-29T07:24:30;18.60;99.90
11005;DHT22;5555;59.622;16.556;2023-07-29T07:26:56;18.60;99.90
11005;DHT22;5555;59.622;16.556;2023-07-29T07:29:21;18.70;99.90
11005;DHT22;5555;59.622;16.556;2023-07-29T07:31:52;18.80;99.90
11005;DHT22;5555;59.622;16.556;2023-07-29T07:34:22;19.00;99.90
11005;DHT22;5555;59.622;16.556;2023-07-29T07:36:48;19.10;99.90
11005;DHT22;5555;59.622;16.556;2023-07-29T07:39:14;19.10;99.90
11005;DHT22;5555;59.622;16.556;2023-07-29T07:41:40;19.30;99.90
11005;DHT22;5555;59.622;16.556;2023-07-29T07:44:06;19.30;99.90
11005;DHT22;5555;59.622;16.556;2023-07-29T07:46:31;19.30;99.90
11005;DHT22;5555;59.622;16.556;2023-07-29T07:48:57;19.50;99.90
11005;DHT22;5555;59.622;16.556;2023-07-29T07:51:22;19.50;99.90
11005;DHT22;5555;59.622;16.556;2023-07-29T07:53:48;19.50;99.90
11005;DHT22;5555;59.622;16.556;2023-07-29T07:56:14;19.60;99.90
11005;DHT22;5555;59.622;16.556;2023-07-29T07:58:40;19.80;99.90
11005;DHT22;5555;59.622;16.556;2023-07-29T08:01:06;19.80;99.90
11005;DHT22;5555;59.622;16.556;2023-07-29T08:03:33;19.70;99.90
11005;DHT22;5555;59.622;16.556;2023-07-29T08:05:59;19.80;99.90
11005;DHT22;5555;59.622;16.556;2023-07-29T08:08:25;19.90;99.90
11005;DHT22;5555;59.622;16.556;2023-07-29T08:10:53;19.90;99.90
11005;DHT22;5555;59.622;16.556;2023-07-29T08:13:19;20.00;99.90
11005;DHT22;5555;59.622;16.556;2023-07-29T08:15:49;20.00;99.90
11005;DHT22;5555;59.622;16.556;2023-07-29T08:18:15;20.10;99.90
11005;DHT22;5555;59.622;16.556;2023-07-29T08:20:41;20.30;99.90
11005;DHT22;5555;59.622;16.556;2023-07-29T08:23:16;20.40;99.90
11005;DHT22;5555;59.622;16.556;2023-07-29T08:25:41;20.60;99.90
11005;DHT22;5555;59.622;16.556;2023-07-29T08:28:07;20.80;99.90
11005;DHT22;5555;59.622;16.556;2023-07-29T08:30:33;20.80;99.90
11005;DHT22;5555;59.622;16.556;2023-07-29T08:32:58;20.80;99.90
11005;DHT22;5555;59.622;16.556;2023-07-29T08:35:24;20.90;99.90
11005;DHT22;5555;59.622;16.556;2023-07-29T08:37:49;20.80;99.90
11005;DHT22;5555;59.622;16.556;2023-07-29T08:40:15;20.80;99.90
11005;DHT22;5555;59.622;16.556;2023-07-29T08:42:41;20.90;99.90
11005;DHT22;5555;59.622;16.556;2023-07-29T08:45:11;21.00;99.90
11005;DHT22;5555;59.622;16.556;2023-07-29T08:47:37;21.20;99.90
11005;DHT22;5555;59.622;16.556;2023-07-29T08:50:03;21.20;99.90
11005;DHT22;5555;59.622;16.556;2023-07-29T08:52:29;21.30;99.90
11005;DHT22;5555;59.622;16.556;2023-07-29T08:54:58;21.20;99.90
11005;DHT22;5555;59.622;16.556;2023-07-29T08:57:23;21.10;99.90
11005;DHT22;5555;59.622;16.556;2023-07-29T08:59:49;21.30;99.90
11005;DHT22;5555;59.622;16.556;2023-07-29T09:02:15;21.30;99.90
11005;DHT22;5555;59.622;16.556;2023-07-29T09:04:41;21.30;99.90
11005;DHT22;5555;59.622;16.556;2023-07-29T09:07:07;21.40;99.90
11005;DHT22;5555;59.622;16.556;2023-07-29T09:09:33;21.40;99.90
11005;DHT22;5555;59.622;16.556;2023-07-29T09:11:59;21.40;99.90
11005;DHT22;5555;59.622;16.556;2023-07-29T09:14:24;21.60;99.90
11005;DHT22;5555;59.622;16.556;2023-07-29T09:16:50;21.70;99.90
11005;DHT22;5555;59.622;16.556;2023-07-29T09:19:16;21.70;99.90
11005;DHT22;5555;59.622;16.556;2023-07-29T09:21:42;21.80;99.90
11005;DHT22;5555;59.622;16.556;2023-07-29T09:24:08;21.60;99.90
11005;DHT22;5555;59.622;16.556;2023-07-29T09:26:34;21.70;99.90
11005;DHT22;5555;59.622;16.556;2023-07-29T09:29:00;21.80;99.90
11005;DHT22;5555;59.622;16.556;2023-07-29T09:31:28;21.90;99.90
11005;DHT22;5555;59.622;16.556;2023-07-29T09:34:03;22.00;99.90
11005;DHT22;5555;59.622;16.556;2023-07-29T09:36:31;22.10;99.90
11005;DHT22;5555;59.622;16.556;2023-07-29T09:38:57;22.20;99.90
11005;DHT22;5555;59.622;16.556;2023-07-29T09:41:24;22.30;99.90
11005;DHT22;5555;59.622;16.556;2023-07-29T09:43:56;22.30;99.90
11005;DHT22;5555;59.622;16.556;2023-07-29T09:46:23;22.50;99.90
11005;DHT22;5555;59.622;16.556;2023-07-29T09:48:53;22.00;99.90
11005;DHT22;5555;59.622;16.556;2023-07-29T09:51:20;22.10;99.90
11005;DHT22;5555;59.622;16.556;2023-07-29T09:53:47;22.20;99.90
11005;DHT22;5555;59.622;16.556;2023-07-29T09:56:14;22.40;99.90
11005;DHT22;5555;59.622;16.556;2023-07-29T09:58:39;22.60;99.90
11005;DHT22;5555;59.622;16.556;2023-07-29T10:01:06;22.80;99.90
11005;DHT22;5555;59.622;16.556;2023-07-29T10:03:32;22.80;99.90
11005;DHT22;5555;59.622;16.556;2023-07-29T10:06:05;22.60;99.90
11005;DHT22;5555;59.622;16.556;2023-07-29T10:08:32;22.50;99.90
11005;DHT22;5555;59.622;16.556;2023-07-29T10:11:01;22.60;99.90
11005;DHT22;5555;59.622;16.556;2023-07-29T10:13:27;22.50;99.90
11005;DHT22;5555;59.622;16.556;2023-07-29T10:15:56;22.60;99.90
11005;DHT22;5555;59.622;16.556;2023-07-29T10:18:23;22.70;99.90
11005;DHT22;5555;59.622;16.556;2023-07-29T10:20:51;22.70;99.90
11005;DHT22;5555;59.622;16.556;2023-07-29T10:23:18;22.90;99.90
11005;DHT22;5555;59.622;16.556;2023-07-29T10:26:04;22.80;99.90
11005;DHT22;5555;59.622;16.556;2023-07-29T10:28:31;23.00;99.90
11005;DHT22;5555;59.622;16.556;2023-07-29T10:30:58;23.00;99.90
11005;DHT22;5555;59.622;16.556;2023-07-29T10:33:24;23.00;99.90
11005;DHT22;5555;59.622;16.556;2023-07-29T10:35:51;23.20;99.90
11005;DHT22;5555;59.622;16.556;2023-07-29T10:38:18;23.50;99.90
11005;DHT22;5555;59.622;16.556;2023-07-29T10:40:57;23.80;99.90
11005;DHT22;5555;59.622;16.556;2023-07-29T10:43:32;24.00;99.90
11005;DHT22;5555;59.622;16.556;2023-07-29T10:46:18;24.30;99.90
11005;DHT22;5555;59.622;16.556;2023-07-29T10:53:56;24.20;99.90
11005;DHT22;5555;59.622;16.556;2023-07-29T10:56:37;24.50;99.90
11005;DHT22;5555;59.622;16.556;2023-07-29T11:01:39;24.80;99.90
11005;DHT22;5555;59.622;16.556;2023-07-29T11:12:39;25.10;99.90
11005;DHT22;5555;59.622;16.556;2023-07-29T11:17:40;25.20;99.90
11005;DHT22;5555;59.622;16.556;2023-07-29T11:20:06;25.00;99.90
11005;DHT22;5555;59.622;16.556;2023-07-29T11:22:36;24.80;99.90
11005;DHT22;5555;59.622;16.556;2023-07-29T11:25:02;24.90;99.90
11005;DHT22;5555;59.622;16.556;2023-07-29T11:27:28;25.00;99.90
11005;DHT22;5555;59.622;16.556;2023-07-29T11:29:58;25.10;99.90
11005;DHT22;5555;59.622;16.556;2023-07-29T11:32:24;24.80;99.90
11005;DHT22;5555;59.622;16.556;2023-07-29T11:34:50;25.40;99.90
11005;DHT22;5555;59.622;16.556;2023-07-29T11:37:16;26.00;99.90
11005;DHT22;5555;59.622;16.556;2023-07-29T11:39:43;26.20;99.90
11005;DHT22;5555;59.622;16.556;2023-07-29T11:42:15;26.60;99.90
11005;DHT22;5555;59.622;16.556;2023-07-29T11:44:41;26.50;99.90
11005;DHT22;5555;59.622;16.556;2023-07-29T11:47:11;26.10;99.90
11005;DHT22;5555;59.622;16.556;2023-07-29T11:49:41;25.60;99.90
11005;DHT22;5555;59.622;16.556;2023-07-29T11:52:10;25.60;99.90
11005;DHT22;5555;59.622;16.556;2023-07-29T11:54:37;26.00;99.90
11005;DHT22;5555;59.622;16.556;2023-07-29T11:57:06;26.10;99.90
11005;DHT22;5555;59.622;16.556;2023-07-29T11:59:34;25.20;99.90
11005;DHT22;5555;59.622;16.556;2023-07-29T12:02:11;25.90;99.90
11005;DHT22;5555;59.622;16.556;2023-07-29T12:04:39;26.00;99.90
11005;DHT22;5555;59.622;16.556;2023-07-29T12:07:06;26.80;99.90
11005;DHT22;5555;59.622;16.556;2023-07-29T12:09:32;27.30;99.90
11005;DHT22;5555;59.622;16.556;2023-07-29T12:11:58;27.10;99.90
11005;DHT22;5555;59.622;16.556;2023-07-29T12:14:30;26.70;99.90
11005;DHT22;5555;59.622;16.556;2023-07-29T12:17:00;27.20;99.90
11005;DHT22;5555;59.622;16.556;2023-07-29T12:19:34;28.10;99.90
11005;DHT22;5555;59.622;16.556;2023-07-29T12:22:01;28.00;98.30
11005;DHT22;5555;59.622;16.556;2023-07-29T12:24:29;28.00;99.20
11005;DHT22;5555;59.622;16.556;2023-07-29T12:26:54;27.30;98.20
11005;DHT22;5555;59.622;16.556;2023-07-29T12:29:20;27.40;96.70
11005;DHT22;5555;59.622;16.556;2023-07-29T12:31:46;27.20;98.00
11005;DHT22;5555;59.622;16.556;2023-07-29T12:34:21;26.90;97.50
11005;DHT22;5555;59.622;16.556;2023-07-29T12:36:51;27.10;97.50
11005;DHT22;5555;59.622;16.556;2023-07-29T12:41:50;27.10;99.40
11005;DHT22;5555;59.622;16.556;2023-07-29T12:44:16;27.70;97.90
11005;DHT22;5555;59.622;16.556;2023-07-29T12:46:42;26.40;98.10
11005;DHT22;5555;59.622;16.556;2023-07-29T12:49:08;25.30;99.90
11005;DHT22;5555;59.622;16.556;2023-07-29T12:51:33;25.20;99.90
11005;DHT22;5555;59.622;16.556;2023-07-29T12:54:00;26.40;99.40
11005;DHT22;5555;59.622;16.556;2023-07-29T12:56:25;26.60;99.90
11005;DHT22;5555;59.622;16.556;2023-07-29T12:58:52;26.40;99.80
11005;DHT22;5555;59.622;16.556;2023-07-29T13:01:17;26.80;99.90
11005;DHT22;5555;59.622;16.556;2023-07-29T13:03:47;27.40;99.60
11005;DHT22;5555;59.622;16.556;2023-07-29T13:06:13;26.60;98.30
11005;DHT22;5555;59.622;16.556;2023-07-29T13:08:39;26.80;99.20
11005;DHT22;5555;59.622;16.556;2023-07-29T13:11:05;27.00;98.40
11005;DHT22;5555;59.622;16.556;2023-07-29T13:13:31;27.30;99.40
11005;DHT22;5555;59.622;16.556;2023-07-29T13:15:57;28.00;97.60
11005;DHT22;5555;59.622;16.556;2023-07-29T13:18:22;28.60;97.40
11005;DHT22;5555;59.622;16.556;2023-07-29T13:20:48;29.10;97.50
11005;DHT22;5555;59.622;16.556;2023-07-29T13:23:14;29.00;94.60
11005;DHT22;5555;59.622;16.556;2023-07-29T13:25:40;29.00;94.70
11005;DHT22;5555;59.622;16.556;2023-07-29T13:28:06;29.40;94.10
11005;DHT22;5555;59.622;16.556;2023-07-29T13:30:32;28.60;94.00
11005;DHT22;5555;59.622;16.556;2023-07-29T13:32:58;28.90;93.80
11005;DHT22;5555;59.622;16.556;2023-07-29T13:35:24;28.20;94.00
11005;DHT22;5555;59.622;16.556;2023-07-29T13:37:49;28.30;94.20
11005;DHT22;5555;59.622;16.556;2023-07-29T13:40:15;27.90;94.70
11005;DHT22;5555;59.622;16.556;2023-07-29T13:42:41;27.90;94.10
11005;DHT22;5555;59.622;16.556;2023-07-29T13:45:07;27.60;94.50
11005;DHT22;5555;59.622;16.556;2023-07-29T13:47:33;28.30;94.50
11005;DHT22;5555;59.622;16.556;2023-07-29T13:49:59;29.00;92.90
11005;DHT22;5555;59.622;16.556;2023-07-29T13:52:25;29.10;93.00
11005;DHT22;5555;59.622;16.556;2023-07-29T13:54:51;29.30;93.10
11005;DHT22;5555;59.622;16.556;2023-07-29T13:57:16;29.80;92.20
11005;DHT22;5555;59.622;16.556;2023-07-29T13:59:42;30.10;91.30
11005;DHT22;5555;59.622;16.556;2023-07-29T14:02:07;30.00;89.00
11005;DHT22;5555;59.622;16.556;2023-07-29T14:04:33;30.30;89.30
11005;DHT22;5555;59.622;16.556;2023-07-29T14:06:59;30.60;89.90
11005;DHT22;5555;59.622;16.556;2023-07-29T14:09:26;29.50;89.40
11005;DHT22;5555;59.622;16.556;2023-07-29T14:11:52;28.80;88.70
11005;DHT22;5555;59.622;16.556;2023-07-29T14:14:17;29.70;88.80
11005;DHT22;5555;59.622;16.556;2023-07-29T14:16:43;29.40;87.90
11005;DHT22;5555;59.622;16.556;2023-07-29T14:19:08;29.70;86.80
11005;DHT22;5555;59.622;16.556;2023-07-29T14:21:34;29.30;86.90
11005;DHT22;5555;59.622;16.556;2023-07-29T14:24:00;29.20;86.10
11005;DHT22;5555;59.622;16.556;2023-07-29T14:26:25;28.70;87.80
11005;DHT22;5555;59.622;16.556;2023-07-29T14:28:51;28.40;85.40
11005;DHT22;5555;59.622;16.556;2023-07-29T14:31:17;29.00;83.20
11005;DHT22;5555;59.622;16.556;2023-07-29T14:33:43;28.80;83.00
11005;DHT22;5555;59.622;16.556;2023-07-29T14:36:09;28.70;83.80
11005;DHT22;5555;59.622;16.556;2023-07-29T14:38:35;29.30;85.30
11005;DHT22;5555;59.622;16.556;2023-07-29T14:41:02;29.90;82.50
11005;DHT22;5555;59.622;16.556;2023-07-29T14:43:28;30.50;81.50
11005;DHT22;5555;59.622;16.556;2023-07-29T14:45:53;29.80;83.70
11005;DHT22;5555;59.622;16.556;2023-07-29T14:48:19;28.70;82.50
11005;DHT22;5555;59.622;16.556;2023-07-29T14:50:45;29.70;80.50
11005;DHT22;5555;59.622;16.556;2023-07-29T14:53:11;30.10;81.00
11005;DHT22;5555;59.622;16.556;2023-07-29T14:55:37;29.00;83.20
11005;DHT22;5555;59.622;16.556;2023-07-29T14:58:03;29.90;81.40
11005;DHT22;5555;59.622;16.556;2023-07-29T15:00:29;30.60;81.70
11005;DHT22;5555;59.622;16.556;2023-07-29T15:02:54;30.60;79.20
11005;DHT22;5555;59.622;16.556;2023-07-29T15:05:20;29.50;82.70
11005;DHT22;5555;59.622;16.556;2023-07-29T15:07:46;30.40;80.40
11005;DHT22;5555;59.622;16.556;2023-07-29T15:10:14;31.50;77.20
11005;DHT22;5555;59.622;16.556;2023-07-29T15:12:41;31.00;77.30
11005;DHT22;5555;59.622;16.556;2023-07-29T15:15:08;31.30;77.50
11005;DHT22;5555;59.622;16.556;2023-07-29T15:17:33;31.20;79.00
11005;DHT22;5555;59.622;16.556;2023-07-29T15:19:59;30.80;79.40
11005;DHT22;5555;59.622;16.556;2023-07-29T15:22:25;30.80;81.80
11005;DHT22;5555;59.622;16.556;2023-07-29T15:24:50;31.20;80.00
11005;DHT22;5555;59.622;16.556;2023-07-29T15:27:16;32.00;79.00
11005;DHT22;5555;59.622;16.556;2023-07-29T15:29:41;32.00;79.70
11005;DHT22;5555;59.622;16.556;2023-07-29T15:32:07;31.50;77.60
11005;DHT22;5555;59.622;16.556;2023-07-29T15:34:33;30.60;78.30
11005;DHT22;5555;59.622;16.556;2023-07-29T15:36:59;30.40;78.90
11005;DHT22;5555;59.622;16.556;2023-07-29T15:39:25;31.60;78.50
11005;DHT22;5555;59.622;16.556;2023-07-29T15:41:51;32.40;76.20
11005;DHT22;5555;59.622;16.556;2023-07-29T15:44:17;32.40;76.60
11005;DHT22;5555;59.622;16.556;2023-07-29T15:46:43;30.90;76.60
11005;DHT22;5555;59.622;16.556;2023-07-29T15:49:09;30.30;76.20
11005;DHT22;5555;59.622;16.556;2023-07-29T15:51:35;30.00;77.50
11005;DHT22;5555;59.622;16.556;2023-07-29T15:54:01;30.60;75.80